Decoded Metar for KHYA (HYANNIS in MA, USA) (IATA:HYA) | Meteo·Mobile Aviation Weather
aviador You're here:

KHYA Decoded Metar

HYANNIS in MA, USA
Report Time2018-10-17 05:56:00
UTC Time2018-10-17 06:04:51
Flight Rules vfr VFR
WindCalm
Visibility9999 m
Phenomena:N/A
Clouds:N/A
Expected CloudBase > 800 ft AGL from Temp-Dew spread
CeilingNone
Temp05°C (ISA -10)
Dew Point03°C (87% RH)
AAT3.5°C
QNH1016 hPa
Density Alt-1,119 ft
Elevation72 ft
Report Wrong Elevation
Raw Report
KHYA 170556Z AUTO 00000KT 10SM CLR 05/03 A3000 RMK AO2 SLP158
T00500033 10100 20044 58009=

Extra information for KHYA:More info

Metar Taf Metar & Taf Last 4 Metars F.Rules Stats Wind Profile Meteogram Temp Stats Airport Information Weather charts Add Link Nearby VenuesMetar ALERT Operation Metar Decoded Social comments

AIRNAV info for KHYA